Time;durP1;ratioP1;P1;durP2;ratioP2;P2;SDS_P1;SDS_P2;PMS_P1;PMS_P2;Temp;Humidity;BMP_temperature;BMP_pressure;BME280_temperature;BME280_humidity;BME280_pressure;Samples;Min_cycle;Max_cycle;Signal;HPM_P1;HPM_P2
2022/06/02 00:02:41;;;;;;;;;;;;;;;20.69;45.47;95710.13;10335501;28;2159;-59
2022/06/02 00:07:53;;;;;;;;;;;;;;;20.69;45.51;95716.16;10356539;28;2342;-58
2022/06/02 00:13:12;;;;;;;;;;;;;;;20.69;45.46;95726.69;10354443;28;2215;-59
2022/06/02 00:18:12;;;;;;;;;;;;;;;20.70;45.66;95732.75;10355267;28;2279;-58
2022/06/02 00:23:21;;;;;;;;;;;;;;;20.70;45.40;95727.50;10351549;28;2347;-59
2022/06/02 00:28:30;;;;;;;;;;;;;;;20.69;45.50;95737.25;10356778;28;2427;-58
2022/06/02 00:33:52;;;;;;;;;;;;;;;20.69;45.35;95745.16;10354974;28;2363;-58
2022/06/02 00:38:53;;;;;;;;;;;;;;;20.68;45.20;95756.75;10330083;28;2302;-59
2022/06/02 00:44:16;;;;;;;;;;;;;;;20.70;45.40;95759.91;10350194;28;2315;-57
2022/06/02 00:49:37;;;;;;;;;;;;;;;20.70;45.17;95749.38;10330362;28;2238;-59
2022/06/02 01:00:28;;;;;;;;;;;;;;;20.69;45.41;95762.81;10305699;28;2110;-56
2022/06/02 01:05:34;;;;;;;;;;;;;;;20.71;45.16;95763.34;10354309;28;2328;-58
2022/06/02 01:11:04;;;;;;;;;;;;;;;20.70;45.11;95759.09;10329717;28;1981;-57
2022/06/02 01:16:08;;;;;;;;;;;;;;;20.71;44.97;95758.81;10317942;28;2156;-60
2022/06/02 01:21:19;;;;;;;;;;;;;;;20.71;44.96;95766.72;10337687;28;2118;-57
2022/06/02 01:26:50;;;;;;;;;;;;;;;20.71;44.94;95769.38;10335715;28;2320;-58
2022/06/02 01:32:01;;;;;;;;;;;;;;;20.70;45.05;95770.44;10329794;28;2114;-59
2022/06/02 01:37:05;;;;;;;;;;;;;;;20.71;44.89;95771.22;10354402;28;2358;-58
2022/06/02 01:42:24;;;;;;;;;;;;;;;20.72;44.79;95763.03;10342006;28;2767;-61
2022/06/02 01:47:31;;;;;;;;;;;;;;;20.72;45.08;95759.63;10337767;28;2405;-59
2022/06/02 01:52:41;;;;;;;;;;;;;;;20.72;44.79;95756.97;10348061;28;2360;-61
2022/06/02 01:57:44;;;;;;;;;;;;;;;20.71;44.96;95756.19;10338301;28;2378;-58
2022/06/02 02:02:53;;;;;;;;;;;;;;;20.72;44.79;95756.97;10346904;28;2345;-59
2022/06/02 02:08:09;;;;;;;;;;;;;;;20.72;44.81;95763.03;10332939;28;2311;-58
2022/06/02 02:13:25;;;;;;;;;;;;;;;20.72;44.92;95757.78;10337508;28;2350;-59
2022/06/02 02:18:36;;;;;;;;;;;;;;;20.71;44.79;95764.09;10353785;28;2313;-60
2022/06/02 02:23:46;;;;;;;;;;;;;;;20.71;44.91;95772.00;10337036;28;2304;-61
2022/06/02 02:28:52;;;;;;;;;;;;;;;20.71;44.94;95776.50;10338954;28;2418;-60
2022/06/02 02:34:10;;;;;;;;;;;;;;;20.72;44.72;95773.59;10351444;28;2333;-59
2022/06/02 02:39:18;;;;;;;;;;;;;;;20.71;44.76;95772.00;10327603;28;2333;-57
2022/06/02 02:44:22;;;;;;;;;;;;;;;20.72;44.97;95760.41;10334591;28;2358;-60
2022/06/02 02:49:27;;;;;;;;;;;;;;;20.71;45.08;95768.59;10332303;28;2375;-58
2022/06/02 02:54:42;;;;;;;;;;;;;;;20.71;45.00;95774.63;10335770;28;2442;-58
2022/06/02 02:59:53;;;;;;;;;;;;;;;20.71;44.77;95793.06;10324341;28;2280;-56
2022/06/02 03:05:12;;;;;;;;;;;;;;;20.71;44.68;95785.16;10320833;28;2321;-61
2022/06/02 03:10:17;;;;;;;;;;;;;;;20.72;44.69;95770.16;10350187;28;2475;-60
2022/06/02 03:15:39;;;;;;;;;;;;;;;20.70;44.82;95783.59;10345110;28;2328;-57
2022/06/02 03:20:59;;;;;;;;;;;;;;;20.70;44.61;95786.25;10346552;28;2407;-60
2022/06/02 03:26:10;;;;;;;;;;;;;;;20.71;44.65;95782.53;10361008;28;2337;-58
2022/06/02 03:31:23;;;;;;;;;;;;;;;20.71;44.80;95795.69;10361649;28;2440;-59
2022/06/02 03:36:30;;;;;;;;;;;;;;;20.70;44.66;95795.97;10368381;28;2408;-59
2022/06/02 03:41:30;;;;;;;;;;;;;;;20.71;44.69;95802.84;10351031;28;2441;-59
2022/06/02 03:46:36;;;;;;;;;;;;;;;20.71;44.84;95792.31;10343304;28;2553;-60
2022/06/02 03:52:00;;;;;;;;;;;;;;;20.70;44.53;95801.25;10340657;28;2316;-61
2022/06/02 03:57:19;;;;;;;;;;;;;;;20.71;44.58;95798.34;10338456;28;2349;-57
2022/06/02 04:02:31;;;;;;;;;;;;;;;20.72;44.74;95804.41;10344606;28;2382;-58
2022/06/02 04:07:37;;;;;;;;;;;;;;;20.72;44.90;95799.13;10328949;28;2386;-61
2022/06/02 04:18:26;;;;;;;;;;;;;;;20.71;44.54;95814.13;10325726;28;2313;-59
2022/06/02 04:23:45;;;;;;;;;;;;;;;20.71;44.59;95814.13;10325507;28;2346;-58
2022/06/02 04:28:49;;;;;;;;;;;;;;;20.72;44.79;95821.00;10340823;28;2349;-60
2022/06/02 04:34:03;;;;;;;;;;;;;;;20.72;44.78;95826.28;10364830;28;2574;-59
2022/06/02 04:39:07;;;;;;;;;;;;;;;20.72;44.68;95825.47;10370058;28;2181;-60
2022/06/02 04:44:13;;;;;;;;;;;;;;;20.72;44.75;95849.97;10320708;28;2419;-59
2022/06/02 04:49:17;;;;;;;;;;;;;;;20.72;44.76;95841.28;10355578;28;2149;-59
2022/06/02 04:54:23;;;;;;;;;;;;;;;20.73;44.87;95853.41;10339525;28;2303;-58
2022/06/02 04:59:26;;;;;;;;;;;;;;;20.72;44.81;95847.34;10355530;28;2197;-59
2022/06/02 05:04:27;;;;;;;;;;;;;;;20.73;44.91;95845.50;10341127;28;2249;-57
2022/06/02 05:09:31;;;;;;;;;;;;;;;20.73;45.16;95859.44;10337411;28;2256;-59
2022/06/02 05:14:33;;;;;;;;;;;;;;;20.73;44.95;95854.16;10349572;28;2360;-59
2022/06/02 05:19:37;;;;;;;;;;;;;;;20.72;44.97;95857.88;10331362;28;2161;-60
2022/06/02 05:24:44;;;;;;;;;;;;;;;20.73;44.93;95869.97;10334935;28;2311;-57
2022/06/02 05:29:47;;;;;;;;;;;;;;;20.75;45.07;95861.81;10339607;28;2245;-59
2022/06/02 05:35:04;;;;;;;;;;;;;;;20.74;45.13;95857.59;10342318;28;2284;-61
2022/06/02 05:40:04;;;;;;;;;;;;;;;20.75;45.13;95875.75;10326131;28;2805;-58
2022/06/02 05:45:05;;;;;;;;;;;;;;;20.75;45.06;95877.63;10335389;28;2316;-60
2022/06/02 05:50:18;;;;;;;;;;;;;;;20.75;44.96;95875.75;10335791;28;2256;-58
2022/06/02 05:55:37;;;;;;;;;;;;;;;20.76;45.12;95881.81;10338882;28;2329;-58
2022/06/02 06:00:45;;;;;;;;;;;;;;;20.77;44.92;95880.78;10333418;28;2256;-59
2022/06/02 06:05:46;;;;;;;;;;;;;;;20.77;45.35;95883.41;10318964;28;2301;-59
2022/06/02 06:11:05;;;;;;;;;;;;;;;20.77;45.05;95870.25;10335245;28;2297;-58
2022/06/02 06:16:18;;;;;;;;;;;;;;;20.77;44.93;95873.63;10355887;28;2386;-59
2022/06/02 06:21:40;;;;;;;;;;;;;;;20.78;45.12;95879.72;10333632;28;2122;-57
2022/06/02 06:26:59;;;;;;;;;;;;;;;20.77;45.07;95886.81;10330750;28;2315;-59
2022/06/02 06:32:04;;;;;;;;;;;;;;;20.76;45.00;95879.19;10332536;28;2216;-57
2022/06/02 06:37:23;;;;;;;;;;;;;;;20.75;45.08;95883.66;10326131;28;2213;-59
2022/06/02 06:42:23;;;;;;;;;;;;;;;20.78;45.25;95895.50;10347743;28;2209;-61
2022/06/02 06:47:29;;;;;;;;;;;;;;;20.78;45.29;95906.84;10349544;28;2189;-61
2022/06/02 06:52:38;;;;;;;;;;;;;;;20.77;45.36;95889.44;10331063;28;2344;-61
2022/06/02 06:57:42;;;;;;;;;;;;;;;20.78;45.14;95892.88;10345622;28;2291;-59
2022/06/02 07:02:45;;;;;;;;;;;;;;;20.81;45.60;95897.63;10355053;28;2356;-59
2022/06/02 07:07:57;;;;;;;;;;;;;;;20.81;45.84;95903.66;10344479;28;2325;-57
2022/06/02 07:12:58;;;;;;;;;;;;;;;20.83;46.03;95912.09;10333452;28;2114;-58
2022/06/02 07:17:58;;;;;;;;;;;;;;;20.82;46.12;95913.16;10345245;28;2232;-59
2022/06/02 07:22:58;;;;;;;;;;;;;;;20.83;46.29;95914.75;10335693;28;2236;-60
2022/06/02 07:28:01;;;;;;;;;;;;;;;20.83;46.39;95912.09;10338061;28;2209;-56
2022/06/02 07:33:17;;;;;;;;;;;;;;;20.85;46.55;95912.63;10348824;28;2224;-56
2022/06/02 07:38:36;;;;;;;;;;;;;;;20.85;46.39;95909.19;10340459;28;2182;-60
2022/06/02 07:43:46;;;;;;;;;;;;;;;20.85;46.56;95909.19;10356922;28;2309;-60
2022/06/02 07:48:50;;;;;;;;;;;;;;;20.84;46.71;95911.03;10341848;28;2160;-59
2022/06/02 07:53:53;;;;;;;;;;;;;;;20.85;46.82;95914.47;10327795;28;2251;-57
2022/06/02 07:58:53;;;;;;;;;;;;;;;20.86;47.07;95918.66;10357639;28;2098;-60
2022/06/02 08:03:54;;;;;;;;;;;;;;;20.87;46.96;95918.41;10341322;28;2337;-59
2022/06/02 08:09:09;;;;;;;;;;;;;;;20.85;47.05;95920.53;10347556;28;2265;-56
2022/06/02 08:14:25;;;;;;;;;;;;;;;20.87;47.28;95917.59;10324226;28;2224;-59
2022/06/02 08:19:26;;;;;;;;;;;;;;;20.88;47.37;95922.59;10321096;28;2250;-60
2022/06/02 08:24:27;;;;;;;;;;;;;;;20.88;47.23;95930.50;10342335;28;2269;-60
2022/06/02 08:29:33;;;;;;;;;;;;;;;20.87;47.37;95934.22;10349431;28;2275;-60
2022/06/02 08:34:37;;;;;;;;;;;;;;;20.89;47.40;95936.56;10339107;28;2299;-61
2022/06/02 08:39:44;;;;;;;;;;;;;;;20.88;47.32;95934.97;10330240;28;2262;-60
2022/06/02 08:44:47;;;;;;;;;;;;;;;20.87;47.48;95939.50;10353566;28;2578;-61
2022/06/02 08:50:10;;;;;;;;;;;;;;;20.89;47.38;95932.09;10337494;28;2234;-59
2022/06/02 08:55:29;;;;;;;;;;;;;;;20.88;47.53;95935.78;10356477;28;2399;-60
2022/06/02 09:00:42;;;;;;;;;;;;;;;20.88;47.45;95933.13;10336806;28;2513;-60
2022/06/02 09:06:14;;;;;;;;;;;;;;;20.89;47.47;95933.94;10355096;28;2390;-56
2022/06/02 09:11:30;;;;;;;;;;;;;;;20.89;47.61;95936.56;10320420;28;2249;-59
2022/06/02 09:16:39;;;;;;;;;;;;;;;20.89;47.77;95934.72;10351385;28;2164;-58
2022/06/02 09:21:58;;;;;;;;;;;;;;;20.89;47.48;95940.00;10336857;28;2283;-59
2022/06/02 09:27:08;;;;;;;;;;;;;;;20.89;47.68;95952.38;10335736;28;2309;-60
2022/06/02 09:32:19;;;;;;;;;;;;;;;20.90;47.66;95952.09;10507311;27;2245;-59
2022/06/02 09:37:31;;;;;;;;;;;;;;;20.91;47.60;95950.25;10491985;28;2441;-60
2022/06/02 09:42:43;;;;;;;;;;;;;;;20.92;47.51;95946.56;10459629;28;2206;-56
2022/06/02 09:47:44;;;;;;;;;;;;;;;20.91;47.67;95951.06;10457358;28;2209;-58
2022/06/02 09:53:03;;;;;;;;;;;;;;;20.90;47.65;95952.09;10465028;28;2288;-60
2022/06/02 09:58:12;;;;;;;;;;;;;;;20.90;47.68;95946.84;10460532;28;2598;-55
2022/06/02 10:03:19;;;;;;;;;;;;;;;20.92;47.65;95949.97;10466299;28;2253;-60
2022/06/02 10:08:24;;;;;;;;;;;;;;;20.93;47.74;95942.88;10457665;28;2352;-59
2022/06/02 10:13:33;;;;;;;;;;;;;;;20.92;47.52;95947.34;10437802;28;2260;-58
2022/06/02 10:18:51;;;;;;;;;;;;;;;20.93;47.70;95929.69;10463728;28;2347;-60
2022/06/02 10:24:10;;;;;;;;;;;;;;;20.93;47.52;95941.03;10454987;28;2202;-59
2022/06/02 10:29:29;;;;;;;;;;;;;;;20.93;47.70;95937.59;10478458;28;2194;-59
2022/06/02 10:34:41;;;;;;;;;;;;;;;20.93;47.60;95935.75;10506144;28;2143;-60
2022/06/02 10:39:41;;;;;;;;;;;;;;;20.94;47.71;95929.41;10500729;28;2224;-58
2022/06/02 10:44:47;;;;;;;;;;;;;;;20.96;47.77;95929.94;10483037;28;2225;-61
2022/06/02 10:50:00;;;;;;;;;;;;;;;20.96;47.46;95932.56;10457156;28;2314;-60
2022/06/02 10:55:10;;;;;;;;;;;;;;;20.96;47.74;95935.22;10491083;28;2521;-60
2022/06/02 11:00:16;;;;;;;;;;;;;;;20.96;47.43;95943.13;10477001;28;2289;-56
2022/06/02 11:05:35;;;;;;;;;;;;;;;20.97;47.67;95936.00;10462589;28;2389;-60
2022/06/02 11:10:46;;;;;;;;;;;;;;;20.97;47.53;95933.38;10457840;28;2277;-60
2022/06/02 11:15:47;;;;;;;;;;;;;;;20.98;47.99;95929.66;10445775;28;2138;-59
2022/06/02 11:21:04;;;;;;;;;;;;;;;21.02;48.16;95926.25;10489235;28;2150;-59
2022/06/02 11:26:07;;;;;;;;;;;;;;;21.03;48.92;95927.03;10474211;28;2274;-59
2022/06/02 11:31:26;;;;;;;;;;;;;;;21.03;49.31;95919.13;10491584;28;2214;-57
2022/06/02 11:36:32;;;;;;;;;;;;;;;21.04;49.15;95913.59;10489632;28;2278;-59
2022/06/02 11:41:45;;;;;;;;;;;;;;;21.03;49.13;95898.84;10478348;28;2165;-60
2022/06/02 11:46:46;;;;;;;;;;;;;;;21.08;49.23;95902.50;10442347;28;2211;-57
2022/06/02 11:51:56;;;;;;;;;;;;;;;21.06;49.18;95893.00;10455046;28;2332;-61
2022/06/02 11:57:02;;;;;;;;;;;;;;;21.08;49.16;95898.81;10455555;28;2169;-60
2022/06/02 12:02:23;;;;;;;;;;;;;;;21.08;49.23;95892.75;10478394;28;2173;-59
2022/06/02 12:07:33;;;;;;;;;;;;;;;21.09;49.29;95910.13;10474698;28;2244;-60
2022/06/02 12:12:45;;;;;;;;;;;;;;;21.08;49.14;95909.34;10476624;28;2230;-60
2022/06/02 12:17:55;;;;;;;;;;;;;;;21.08;49.13;95899.88;10453546;28;2285;-59
2022/06/02 12:22:55;;;;;;;;;;;;;;;21.07;49.04;95901.72;10458916;28;2275;-59
2022/06/02 12:28:14;;;;;;;;;;;;;;;21.06;48.82;95892.25;10457662;28;2250;-58
2022/06/02 12:33:25;;;;;;;;;;;;;;;21.08;49.02;95902.50;10473800;28;2261;-58
2022/06/02 12:38:25;;;;;;;;;;;;;;;21.06;48.72;95903.56;10472198;28;2232;-59
2022/06/02 12:43:45;;;;;;;;;;;;;;;21.06;49.03;95916.72;10454659;28;2183;-57
2022/06/02 12:48:48;;;;;;;;;;;;;;;21.06;48.88;95927.28;10450072;28;2239;-59
2022/06/02 12:54:07;;;;;;;;;;;;;;;21.05;48.92;95925.72;10476329;28;2357;-59
2022/06/02 12:59:26;;;;;;;;;;;;;;;21.05;48.94;95909.09;10457084;28;2353;-59
2022/06/02 13:04:45;;;;;;;;;;;;;;;21.05;48.88;95888.03;10478165;28;2645;-59
2022/06/02 13:09:48;;;;;;;;;;;;;;;21.08;48.88;95884.06;10457624;28;1999;-59
2022/06/02 13:15:08;;;;;;;;;;;;;;;21.08;48.85;95881.44;10454636;28;2396;-60
2022/06/02 13:20:27;;;;;;;;;;;;;;;21.09;48.83;95873.22;10473754;28;2292;-60
2022/06/02 13:25:47;;;;;;;;;;;;;;;21.09;48.84;95870.59;10448962;28;2309;-55
2022/06/02 13:30:53;;;;;;;;;;;;;;;21.12;48.63;95877.19;10457030;28;2377;-58
2022/06/02 13:36:12;;;;;;;;;;;;;;;21.12;48.58;95877.19;10451144;28;2428;-59
2022/06/02 13:41:31;;;;;;;;;;;;;;;21.12;48.49;95861.38;10471964;28;2226;-58
2022/06/02 13:46:34;;;;;;;;;;;;;;;21.13;48.05;95870.84;10473715;28;2293;-60
2022/06/02 13:51:47;;;;;;;;;;;;;;;21.13;48.37;95865.56;10455495;28;2162;-58
2022/06/02 14:02:40;;;;;;;;;;;;;;;21.12;48.29;95872.69;10466629;28;2225;-57
2022/06/02 14:07:59;;;;;;;;;;;;;;;21.11;48.26;95876.38;10467043;28;2189;-60
2022/06/02 14:12:59;;;;;;;;;;;;;;;21.12;48.17;95877.19;10456496;28;2154;-58
2022/06/02 14:18:14;;;;;;;;;;;;;;;21.13;48.12;95870.84;10477319;28;2318;-58
2022/06/02 14:23:33;;;;;;;;;;;;;;;21.13;47.89;95873.47;10474278;28;2282;-58
2022/06/02 14:28:45;;;;;;;;;;;;;;;21.13;48.00;95861.09;10483658;28;2259;-55
2022/06/02 14:33:48;;;;;;;;;;;;;;;21.13;47.98;95845.25;10483927;28;2331;-56
2022/06/02 14:38:55;;;;;;;;;;;;;;;21.14;47.81;95853.97;10487738;28;2341;-59
2022/06/02 14:44:14;;;;;;;;;;;;;;;21.14;48.10;95861.88;10492842;28;2482;-59
2022/06/02 14:49:26;;;;;;;;;;;;;;;21.15;48.06;95860.81;10474496;28;2277;-58
2022/06/02 14:54:33;;;;;;;;;;;;;;;21.13;47.96;95861.09;10463175;28;1988;-58
2022/06/02 14:59:40;;;;;;;;;;;;;;;21.13;47.75;95876.09;10474163;28;2332;-60
2022/06/02 15:04:59;;;;;;;;;;;;;;;21.13;47.82;95876.09;10444685;28;2298;-59
2022/06/02 15:10:26;;;;;;;;;;;;;;;21.12;47.96;95872.69;10478319;28;2296;-58
2022/06/02 15:15:32;;;;;;;;;;;;;;;21.12;48.01;95885.88;10460043;28;2448;-58
2022/06/02 15:20:51;;;;;;;;;;;;;;;21.12;47.91;95872.69;10472347;28;2324;-60
2022/06/02 15:26:07;;;;;;;;;;;;;;;21.13;47.96;95873.47;10462964;28;2293;-60
2022/06/02 15:31:08;;;;;;;;;;;;;;;21.13;47.93;95868.19;10477556;28;2363;-57
2022/06/02 15:36:28;;;;;;;;;;;;;;;21.13;47.77;95870.84;10476062;28;2189;-58
2022/06/02 15:41:58;;;;;;;;;;;;;;;21.12;47.90;95869.28;10459724;28;2232;-59
2022/06/02 15:47:04;;;;;;;;;;;;;;;21.12;47.95;95864.78;10438264;28;2637;-60
2022/06/02 15:52:18;;;;;;;;;;;;;;;21.12;47.90;95869.28;10475711;28;2210;-59
2022/06/02 15:57:28;;;;;;;;;;;;;;;21.13;47.81;95853.19;10454448;28;2364;-60
2022/06/02 16:02:34;;;;;;;;;;;;;;;21.13;47.74;95870.84;10462517;28;2206;-60
2022/06/02 16:07:35;;;;;;;;;;;;;;;21.14;47.85;95875.06;10489371;28;2430;-58
2022/06/02 16:12:35;;;;;;;;;;;;;;;21.13;47.71;95876.09;10479180;28;2281;-60
2022/06/02 16:17:38;;;;;;;;;;;;;;;21.13;47.87;95879.53;10457986;28;2500;-60
2022/06/02 16:22:39;;;;;;;;;;;;;;;21.14;47.88;95880.34;10485523;28;2273;-59
2022/06/02 16:27:48;;;;;;;;;;;;;;;21.14;47.61;95877.69;10490375;28;2659;-59
2022/06/02 16:33:02;;;;;;;;;;;;;;;21.14;47.65;95869.78;10454127;28;2210;-57
2022/06/02 16:38:10;;;;;;;;;;;;;;;21.15;47.77;95871.34;10460172;28;2293;-58
2022/06/02 16:43:11;;;;;;;;;;;;;;;21.16;47.77;95872.94;10477433;28;2251;-56
2022/06/02 16:48:21;;;;;;;;;;;;;;;21.19;47.63;95873.16;10474731;28;2363;-58
2022/06/02 16:53:55;;;;;;;;;;;;;;;21.14;47.49;95854.75;10475114;28;2329;-59
2022/06/02 16:59:02;;;;;;;;;;;;;;;21.15;47.58;95871.34;10470820;28;2262;-60
2022/06/02 17:04:05;;;;;;;;;;;;;;;21.13;47.83;95853.19;10485549;28;2262;-59
2022/06/02 17:09:44;;;;;;;;;;;;;;;21.15;47.79;95847.63;10468812;28;2229;-59
2022/06/02 17:15:03;;;;;;;;;;;;;;;21.14;48.03;95848.69;10307322;28;2386;-59
2022/06/02 17:20:23;;;;;;;;;;;;;;;21.17;48.85;95850.78;10463252;28;2255;-59
2022/06/02 17:25:32;;;;;;;;;;;;;;;21.21;49.60;95854.44;10498362;28;2249;-61
2022/06/02 17:30:35;;;;;;;;;;;;;;;21.26;50.58;95854.41;10488507;28;2233;-61
2022/06/02 17:35:54;;;;;;;;;;;;;;;21.29;51.11;95857.28;10488986;28;2288;-58
2022/06/02 17:41:09;;;;;;;;;;;;;;;21.30;51.15;95864.13;10499099;28;2293;-61
2022/06/02 17:46:12;;;;;;;;;;;;;;;21.29;50.75;95859.16;10449784;28;2271;-61
2022/06/02 17:51:19;;;;;;;;;;;;;;;21.28;50.89;95845.16;10493076;28;2294;-59
2022/06/02 17:56:25;;;;;;;;;;;;;;;21.29;50.59;95846.72;10473515;28;2178;-60
2022/06/02 18:01:38;;;;;;;;;;;;;;;21.29;50.64;95853.88;10461546;28;2205;-59
2022/06/02 18:06:56;;;;;;;;;;;;;;;21.28;51.00;95839.09;10488685;28;2001;-61
2022/06/02 18:12:03;;;;;;;;;;;;;;;21.27;50.88;95842.81;10450231;28;2046;-60
2022/06/02 18:17:33;;;;;;;;;;;;;;;21.26;50.50;95841.22;10474776;28;2257;-59
2022/06/02 18:22:46;;;;;;;;;;;;;;;21.26;50.06;95852.56;10421538;28;2169;-61
2022/06/02 18:27:56;;;;;;;;;;;;;;;21.24;50.36;95838.88;10459183;28;2415;-60
2022/06/02 18:33:01;;;;;;;;;;;;;;;21.24;50.21;95841.50;10474937;28;2515;-58
2022/06/02 18:38:27;;;;;;;;;;;;;;;21.24;50.06;95843.34;10466092;28;2346;-61
2022/06/02 18:43:33;;;;;;;;;;;;;;;21.25;49.88;95840.44;10470534;28;2314;-61
2022/06/02 18:48:53;;;;;;;;;;;;;;;21.23;49.97;95847.81;10450964;28;2480;-62
2022/06/02 18:53:58;;;;;;;;;;;;;;;21.23;49.63;95863.66;10459599;28;2435;-61
2022/06/02 18:59:02;;;;;;;;;;;;;;;21.22;49.61;95848.13;10461850;28;2303;-61
2022/06/02 19:04:02;;;;;;;;;;;;;;;21.23;49.27;95857.56;10453949;28;2584;-60
2022/06/02 19:14:46;;;;;;;;;;;;;;;21.24;49.10;95853.91;10472388;28;2552;-57
2022/06/02 19:19:59;;;;;;;;;;;;;;;21.23;49.07;95860.22;10456972;28;2426;-60
2022/06/02 19:24:59;;;;;;;;;;;;;;;21.23;49.27;95863.66;10457048;28;2625;-60
2022/06/02 19:30:26;;;;;;;;;;;;;;;21.25;49.02;95876.53;10458101;28;2459;-61
2022/06/02 19:35:32;;;;;;;;;;;;;;;21.25;48.69;95879.97;10458283;28;2487;-58
2022/06/02 19:40:39;;;;;;;;;;;;;;;21.29;48.69;95877.59;10454397;28;2347;-59
2022/06/02 19:45:39;;;;;;;;;;;;;;;21.30;48.58;95879.16;10478486;28;2343;-61
2022/06/02 19:50:40;;;;;;;;;;;;;;;21.24;48.92;95877.63;10474167;28;2250;-60
2022/06/02 19:55:41;;;;;;;;;;;;;;;21.22;49.80;95883.19;10479803;28;2352;-59
2022/06/02 20:00:47;;;;;;;;;;;;;;;21.26;50.80;95884.19;10475501;28;2237;-58
2022/06/02 20:05:58;;;;;;;;;;;;;;;21.28;51.07;95889.19;10456095;28;2213;-59
2022/06/02 20:11:03;;;;;;;;;;;;;;;21.28;51.41;95874.16;10450828;28;2206;-58
2022/06/02 20:16:07;;;;;;;;;;;;;;;21.28;51.33;95882.06;10475447;28;2059;-59
2022/06/02 20:21:13;;;;;;;;;;;;;;;21.29;51.21;95882.88;10472515;28;2462;-58
2022/06/02 20:26:14;;;;;;;;;;;;;;;21.28;51.21;95882.06;10454706;28;2306;-59
2022/06/02 20:31:18;;;;;;;;;;;;;;;21.27;51.30;95880.50;10468369;28;2302;-58
2022/06/02 20:36:23;;;;;;;;;;;;;;;21.25;51.01;95876.53;10472817;28;2326;-59
2022/06/02 20:41:42;;;;;;;;;;;;;;;21.28;51.05;95881.28;10450152;28;2175;-60
2022/06/02 20:46:42;;;;;;;;;;;;;;;21.27;51.07;95885.00;10468422;28;2174;-59
2022/06/02 20:51:54;;;;;;;;;;;;;;;21.26;51.08;95878.13;10472054;28;2132;-59
2022/06/02 20:56:55;;;;;;;;;;;;;;;21.26;51.00;95868.38;10455447;28;2408;-60
2022/06/02 21:01:56;;;;;;;;;;;;;;;21.26;51.11;95872.88;10442923;28;2107;-61
2022/06/02 21:06:59;;;;;;;;;;;;;;;21.26;50.91;95878.94;10446044;28;2257;-60
2022/06/02 21:12:18;;;;;;;;;;;;;;;21.27;50.78;95879.72;10465150;28;2333;-60
2022/06/02 21:17:28;;;;;;;;;;;;;;;21.26;50.60;95871.03;10484898;28;2147;-59
2022/06/02 21:22:35;;;;;;;;;;;;;;;21.25;50.59;95861.53;10490433;28;2282;-60
2022/06/02 21:27:35;;;;;;;;;;;;;;;21.25;50.66;95882.63;10484522;28;2306;-57
2022/06/02 21:32:41;;;;;;;;;;;;;;;21.25;50.84;95885.25;10473615;28;2375;-60
2022/06/02 21:37:47;;;;;;;;;;;;;;;21.25;50.59;95887.09;10471443;28;2301;-58
2022/06/02 21:43:03;;;;;;;;;;;;;;;21.25;50.59;95884.44;10456865;28;2226;-58
2022/06/02 21:48:13;;;;;;;;;;;;;;;21.25;50.55;95879.97;10466188;28;2658;-59
2022/06/02 21:53:23;;;;;;;;;;;;;;;21.25;50.29;95871.28;10484954;28;2636;-58
2022/06/02 21:58:33;;;;;;;;;;;;;;;21.25;50.11;95879.19;10468502;28;2334;-58
2022/06/02 22:03:37;;;;;;;;;;;;;;;21.25;50.24;95876.53;10455093;28;2278;-61
2022/06/02 22:08:39;;;;;;;;;;;;;;;21.25;50.34;95866.78;10441086;28;2872;-58
2022/06/02 22:13:58;;;;;;;;;;;;;;;21.24;50.15;95865.22;10443851;28;2227;-58
2022/06/02 22:18:59;;;;;;;;;;;;;;;21.23;49.98;95855.75;10472464;28;2183;-60
2022/06/02 22:24:10;;;;;;;;;;;;;;;21.24;50.14;95865.22;10454266;28;2341;-60
2022/06/02 22:29:17;;;;;;;;;;;;;;;21.24;49.85;95861.81;10456776;28;2392;-57
2022/06/02 22:34:20;;;;;;;;;;;;;;;21.24;49.98;95859.97;10486759;28;2305;-60
2022/06/02 22:39:20;;;;;;;;;;;;;;;21.24;49.84;95848.63;10475075;28;2319;-60
2022/06/02 22:44:39;;;;;;;;;;;;;;;21.24;49.67;95838.06;10473330;28;2496;-59
2022/06/02 22:50:15;;;;;;;;;;;;;;;21.24;49.79;95848.63;10459517;28;1910;-61
2022/06/02 22:55:34;;;;;;;;;;;;;;;21.24;49.70;95849.41;10415130;28;2280;-60
2022/06/02 23:00:46;;;;;;;;;;;;;;;21.23;49.60;95853.09;10473829;28;2337;-61
2022/06/02 23:05:49;;;;;;;;;;;;;;;21.24;49.75;95851.25;10448453;28;2166;-60
2022/06/02 23:11:05;;;;;;;;;;;;;;;21.23;49.64;95847.03;10457684;28;2182;-59
2022/06/02 23:16:17;;;;;;;;;;;;;;;21.24;49.60;95853.91;10492613;28;2234;-60
2022/06/02 23:21:50;;;;;;;;;;;;;;;21.23;49.44;95853.09;10461078;28;2184;-58
2022/06/02 23:26:51;;;;;;;;;;;;;;;21.23;49.44;95849.66;10453437;28;2330;-59
2022/06/02 23:31:51;;;;;;;;;;;;;;;21.23;49.08;95844.41;10472448;28;2276;-58
2022/06/02 23:37:10;;;;;;;;;;;;;;;21.22;49.33;95837.56;10475599;28;2329;-60
2022/06/02 23:47:50;;;;;;;;;;;;;;;21.22;49.05;95835.72;10473003;28;2302;-57
2022/06/02 23:52:55;;;;;;;;;;;;;;;21.22;48.91;95840.19;10485743;28;2354;-60
2022/06/02 23:57:58;;;;;;;;;;;;;;;21.22;48.93;95834.94;10462833;28;2093;-60
